Time;durP1;ratioP1;P1;durP2;ratioP2;P2;SDS_P1;SDS_P2;PMS_P1;PMS_P2;Temp;Humidity;BMP_temperature;BMP_pressure;BME280_temperature;BME280_humidity;BME280_pressure;Samples;Min_cycle;Max_cycle;Signal;HPM_P1;HPM_P2
2022/11/28 00:00:40;;;;;;;;;2.75;2.00;;;;;9.52;82.18;100893.03;5080901;27;45329;-78
2022/11/28 00:03:05;;;;;;;;;10.75;3.00;;;;;9.55;81.99;100887.78;5080909;27;45426;-78
2022/11/28 00:05:31;;;;;;;;;2.75;2.75;;;;;9.59;82.28;100885.97;5081085;27;45401;-78
2022/11/28 00:07:56;;;;;;;;;4.50;3.00;;;;;9.62;82.30;100884.16;5098621;27;59529;-79
2022/11/28 00:10:21;;;;;;;;;5.75;3.00;;;;;9.63;82.44;100883.25;5097733;27;70259;-78
2022/11/28 00:12:47;;;;;;;;;7.00;3.50;;;;;9.66;82.34;100883.19;5098188;27;65272;-78
2022/11/28 00:15:12;;;;;;;;;3.75;2.00;;;;;9.65;81.90;100885.81;5098153;27;66775;-78
2022/11/28 00:17:37;;;;;;;;;5.75;5.50;;;;;9.63;82.13;100879.81;5098694;27;54837;-78
2022/11/28 00:20:03;;;;;;;;;3.00;3.00;;;;;9.63;82.21;100872.88;5098298;27;64883;-78
2022/11/28 00:22:29;;;;;;;;;2.25;1.25;;;;;9.62;82.56;100857.28;5098858;27;45760;-78
2022/11/28 00:24:54;;;;;;;;;6.25;4.00;;;;;9.66;82.28;100867.59;5079725;27;63499;-78
2022/11/28 00:27:20;;;;;;;;;2.00;2.00;;;;;9.63;82.51;100854.66;5098401;27;60108;-78
2022/11/28 00:29:45;;;;;;;;;6.25;3.50;;;;;9.64;82.11;100853.78;5097771;27;72356;-78
2022/11/28 00:32:10;;;;;;;;;3.00;3.00;;;;;9.68;82.58;100858.03;5098395;27;51157;-78
2022/11/28 00:34:36;;;;;;;;;5.75;5.00;;;;;9.66;82.35;100848.56;5097804;27;69641;-78
2022/11/28 00:37:01;;;;;;;;;7.50;5.00;;;;;9.66;82.16;100836.41;5098054;27;59273;-78
2022/11/28 00:39:26;;;;;;;;;4.00;4.00;;;;;9.73;82.16;100852.69;5097315;27;73702;-78
2022/11/28 00:41:52;;;;;;;;;5.50;3.00;;;;;9.77;81.97;100853.50;5097898;27;57660;-79
2022/11/28 00:44:17;;;;;;;;;5.00;5.00;;;;;9.71;81.96;100843.25;5097679;27;69336;-79
2022/11/28 00:46:42;;;;;;;;;5.75;3.00;;;;;9.72;81.80;100838.00;5097769;27;68472;-79
2022/11/28 00:49:08;;;;;;;;;5.50;4.50;;;;;9.73;81.84;100844.91;5079800;27;46196;-78
2022/11/28 00:51:34;;;;;;;;;3.00;2.00;;;;;9.76;82.28;100844.84;5097518;27;67342;-78
2022/11/28 00:54:01;;;;;;;;;7.50;5.25;;;;;9.79;82.21;100834.38;5098265;27;45418;-79
2022/11/28 00:56:32;;;;;;;;;9.00;5.25;;;;;9.81;82.11;100831.75;5098350;27;45484;-78
2022/11/28 00:58:57;;;;;;;;;3.50;3.50;;;;;9.78;81.91;100832.66;5097989;27;46090;-79
2022/11/28 01:01:24;;;;;;;;;6.25;3.00;;;;;9.84;82.32;100826.47;5079204;27;64659;-79
2022/11/28 01:03:51;;;;;;;;;6.00;6.00;;;;;9.86;82.20;100833.34;5080232;27;45492;-79
2022/11/28 01:06:25;;;;;;;;;3.75;2.25;;;;;9.89;82.04;100830.66;5098381;27;45291;-79
2022/11/28 01:08:51;;;;;;;;;5.75;5.00;;;;;9.90;81.93;100836.72;5079537;27;45434;-79
2022/11/28 01:11:16;;;;;;;;;3.00;3.00;;;;;9.89;82.08;100828.06;5098135;27;45290;-79
2022/11/28 01:13:42;;;;;;;;;5.00;5.00;;;;;9.94;81.89;100833.16;5097419;27;57897;-79
2022/11/28 01:16:08;;;;;;;;;11.25;6.00;;;;;9.96;81.86;100838.31;5098213;27;45359;-78
2022/11/28 01:18:34;;;;;;;;;10.00;5.00;;;;;9.91;81.98;100827.16;5097933;27;45288;-79
2022/11/28 01:20:59;;;;;;;;;9.75;5.75;;;;;9.84;81.89;100829.94;5098000;27;45681;-78
2022/11/28 01:23:24;;;;;;;;;7.25;5.75;;;;;9.91;81.67;100843.63;5096718;27;69166;-78
2022/11/28 01:25:50;;;;;;;;;8.00;6.00;;;;;9.95;81.68;100841.78;5096946;27;68802;-78
2022/11/28 01:28:15;;;;;;;;;4.25;4.00;;;;;9.99;82.00;100846.91;5079477;27;46262;-78
2022/11/28 01:30:42;;;;;;;;;5.75;5.25;;;;;10.03;81.82;100847.69;5096727;27;68524;-78
2022/11/28 01:33:07;;;;;;;;;9.00;5.50;;;;;10.01;81.92;100846.84;5097083;27;59601;-78
2022/11/28 01:35:32;;;;;;;;;8.25;6.25;;;;;10.06;81.43;100856.22;5096915;27;69873;-78
2022/11/28 01:37:58;;;;;;;;;5.50;5.50;;;;;10.03;82.00;100850.28;5096300;27;75311;-78
2022/11/28 01:40:23;;;;;;;;;6.00;5.00;;;;;10.01;81.72;100863.31;5096427;27;69025;-78
2022/11/28 01:42:48;;;;;;;;;7.50;5.25;;;;;9.98;82.13;100862.53;5079746;27;45366;-78
2022/11/28 01:45:17;;;;;;;;;6.25;5.75;;;;;9.97;82.18;100861.66;5096700;27;70249;-79
2022/11/28 01:47:43;;;;;;;;;2.00;2.00;;;;;9.92;81.79;100852.25;5097207;27;46501;-79
2022/11/28 01:50:08;;;;;;;;;7.00;6.00;;;;;9.93;82.22;100851.38;5079201;27;45348;-79
2022/11/28 01:52:36;;;;;;;;;10.75;6.00;;;;;9.93;82.28;100864.38;5079017;27;45341;-78
2022/11/28 01:55:03;;;;;;;;;3.50;3.50;;;;;9.91;82.16;100864.41;5079299;27;46042;-78
2022/11/28 01:57:28;;;;;;;;;10.75;7.00;;;;;9.89;82.55;100858.41;5079067;27;46577;-79
2022/11/28 02:00:05;;;;;;;;;5.00;5.00;;;;;9.93;82.75;100860.03;5097166;27;48495;-79
2022/11/28 02:02:39;;;;;;;;;4.50;3.50;;;;;9.98;82.75;100859.94;5097066;27;45400;-78
2022/11/28 02:05:05;;;;;;;;;5.75;5.00;;;;;9.93;82.84;100860.03;5079149;27;45316;-78
2022/11/28 02:07:32;;;;;;;;;8.00;5.00;;;;;9.95;82.53;100866.03;5078535;27;46312;-78
2022/11/28 02:09:58;;;;;;;;;6.00;5.00;;;;;9.95;82.99;100867.81;5097064;27;45816;-79
2022/11/28 02:12:40;;;;;;;;;15.00;6.00;;;;;9.97;83.19;100876.41;5077605;27;59718;-78
2022/11/28 02:15:33;;;;;;;;;6.25;5.25;;;;;9.95;83.12;100870.41;5061897;27;45303;-78
2022/11/28 02:18:12;;;;;;;;;7.00;6.00;;;;;9.96;83.32;100867.78;5097033;27;46093;-79
2022/11/28 02:20:56;;;;;;;;;9.50;5.25;;;;;9.99;82.86;100861.63;5078425;27;45295;-79
2022/11/28 02:23:39;;;;;;;;;10.25;3.00;;;;;10.05;83.08;100856.28;5097239;27;45256;-78
2022/11/28 02:26:19;;;;;;;;;6.25;5.00;;;;;10.12;82.99;100849.19;5097114;27;45263;-78
2022/11/28 02:29:09;;;;;;;;;4.75;4.50;;;;;10.19;82.82;100854.19;5096930;27;46388;-79
2022/11/28 02:31:56;;;;;;;;;7.75;6.50;;;;;10.24;82.63;100854.91;5096728;27;45401;-79
2022/11/28 02:34:55;;;;;;;;;6.50;5.75;;;;;10.25;82.45;100853.16;5096899;27;45283;-79
2022/11/28 02:37:44;;;;;;;;;10.50;6.25;;;;;10.26;82.24;100852.28;5078627;27;45521;-78
2022/11/28 02:40:26;;;;;;;;;5.75;5.75;;;;;10.26;82.62;100845.31;5078385;27;45679;-79
2022/11/28 02:43:05;;;;;;;;;6.50;3.00;;;;;10.25;82.70;100848.84;5078526;27;45418;-79
2022/11/28 02:46:14;;;;;;;;;11.00;8.25;;;;;10.22;82.48;100833.31;5061597;27;45365;-78
2022/11/28 02:48:52;;;;;;;;;7.00;7.00;;;;;10.15;82.65;100829.16;5096434;27;45616;-78
2022/11/28 02:51:25;;;;;;;;;7.25;5.00;;;;;10.16;82.64;100827.38;5077801;27;46465;-79
2022/11/28 02:53:52;;;;;;;;;9.75;6.75;;;;;10.18;82.63;100833.44;5078134;27;45386;-78
2022/11/28 02:56:18;;;;;;;;;7.00;6.00;;;;;10.17;82.40;100823.91;5078520;27;45398;-79
2022/11/28 02:58:43;;;;;;;;;7.00;6.25;;;;;10.14;82.83;100817.06;5096645;27;45347;-78
2022/11/28 03:01:17;;;;;;;;;7.00;6.00;;;;;10.16;82.39;100806.59;5095289;27;74258;-78
2022/11/28 03:03:54;;;;;;;;;13.75;8.25;;;;;10.16;82.44;100802.25;5077831;27;45701;-79
2022/11/28 03:06:42;;;;;;;;;11.00;6.50;;;;;10.16;82.98;100796.19;5096636;27;45237;-78
2022/11/28 03:09:29;;;;;;;;;11.50;5.25;;;;;10.18;82.75;100803.06;5096347;27;45534;-78
2022/11/28 03:12:15;;;;;;;;;7.50;6.00;;;;;10.18;82.25;100808.25;5096320;27;45399;-79
2022/11/28 03:14:59;;;;;;;;;9.00;6.50;;;;;10.15;82.61;100812.69;5096104;27;45680;-78
2022/11/28 03:17:55;;;;;;;;;6.00;6.00;;;;;10.11;82.87;100818.88;5078129;27;45510;-78
2022/11/28 03:20:43;;;;;;;;;6.25;5.25;;;;;10.07;83.24;100820.69;5096230;27;45310;-79
2022/11/28 03:23:27;;;;;;;;;11.00;5.75;;;;;10.07;82.63;100820.69;5080347;27;45553;-79
2022/11/28 03:26:06;;;;;;;;;5.50;5.00;;;;;10.12;82.88;100821.41;5081458;27;45368;-79
2022/11/28 03:28:35;;;;;;;;;9.00;6.50;;;;;10.13;83.02;100825.72;5081647;27;45434;-78
2022/11/28 03:31:13;;;;;;;;;8.25;7.00;;;;;10.13;82.81;100823.13;5081313;27;45526;-79
2022/11/28 03:33:43;;;;;;;;;11.00;6.00;;;;;10.16;82.81;100822.19;5080960;27;45502;-78
2022/11/28 03:36:34;;;;;;;;;8.00;6.00;;;;;10.17;82.75;100834.31;5081573;27;45604;-79
2022/11/28 03:39:05;;;;;;;;;9.00;6.00;;;;;10.17;83.20;100834.31;5071935;27;45473;-79
2022/11/28 03:41:46;;;;;;;;;6.75;4.00;;;;;10.18;82.98;100838.63;5081297;27;45463;-79
2022/11/28 03:44:17;;;;;;;;;5.75;5.00;;;;;10.20;83.04;100837.69;5081128;27;45736;-78
2022/11/28 03:46:46;;;;;;;;;6.50;4.50;;;;;10.23;83.16;100829.81;5081226;27;45733;-79
2022/11/28 03:49:15;;;;;;;;;8.25;7.25;;;;;10.22;82.92;100822.06;5080595;27;45348;-79
2022/11/28 03:51:45;;;;;;;;;6.25;5.00;;;;;10.21;83.04;100810.75;5064289;27;45495;-78
2022/11/28 03:54:24;;;;;;;;;6.00;6.00;;;;;10.30;83.11;100811.44;5080956;27;46186;-78
2022/11/28 03:57:19;;;;;;;;;6.00;5.00;;;;;10.33;83.07;100809.63;5081243;27;45588;-78
2022/11/28 03:59:48;;;;;;;;;9.25;5.00;;;;;10.33;82.84;100808.81;5081164;27;45584;-78
2022/11/28 04:02:19;;;;;;;;;5.50;5.25;;;;;10.39;82.74;100811.22;5080533;27;45439;-78
2022/11/28 04:04:53;;;;;;;;;8.25;6.00;;;;;10.43;82.72;100803.28;5099129;27;46717;-78
2022/11/28 04:07:44;;;;;;;;;5.50;5.50;;;;;10.48;82.48;100813.59;5080896;27;45627;-79
2022/11/28 04:10:35;;;;;;;;;6.25;5.00;;;;;10.46;82.38;100818.81;5081152;27;45335;-78
2022/11/28 04:13:07;;;;;;;;;7.00;5.75;;;;;10.45;82.37;100817.09;5080951;27;45497;-78
2022/11/28 04:15:45;;;;;;;;;5.50;5.00;;;;;10.42;82.35;100817.19;5080799;27;45538;-78
2022/11/28 04:18:30;;;;;;;;;7.00;5.00;;;;;10.43;82.43;100818.91;5098814;27;45854;-79
2022/11/28 04:20:58;;;;;;;;;9.25;7.50;;;;;10.45;82.61;100817.09;5080937;27;45457;-79
2022/11/28 04:23:26;;;;;;;;;3.00;3.00;;;;;10.50;82.89;100813.53;5099097;27;45473;-78
2022/11/28 04:25:59;;;;;;;;;8.00;6.00;;;;;10.51;82.26;100810.91;5080369;27;46588;-79
2022/11/28 04:28:26;;;;;;;;;7.25;7.00;;;;;10.51;82.51;100810.03;5080577;27;45763;-78
2022/11/28 04:30:55;;;;;;;;;10.00;5.25;;;;;10.50;82.45;100810.94;5080229;27;45351;-79
2022/11/28 04:33:23;;;;;;;;;9.50;7.00;;;;;10.55;82.51;100817.72;5080085;27;45355;-79
2022/11/28 04:35:50;;;;;;;;;9.00;5.50;;;;;10.53;82.08;100824.72;5080125;27;46827;-78
2022/11/28 04:38:17;;;;;;;;;9.50;7.00;;;;;10.51;82.33;100823.91;5080271;27;45766;-79
2022/11/28 04:40:55;;;;;;;;;10.75;6.75;;;;;10.45;82.24;100824.91;5080396;27;45316;-79
2022/11/28 04:43:34;;;;;;;;;10.75;7.00;;;;;10.40;82.50;100823.31;5080502;27;45556;-79
2022/11/28 04:46:04;;;;;;;;;7.00;5.00;;;;;10.42;82.30;100830.22;5079943;27;46453;-79
2022/11/28 04:48:30;;;;;;;;;13.50;7.00;;;;;10.38;82.67;100822.50;5080004;27;45431;-79
2022/11/28 04:51:25;;;;;;;;;10.75;6.75;;;;;10.42;82.60;100830.22;5097883;27;61120;-78
2022/11/28 04:54:21;;;;;;;;;8.75;7.00;;;;;10.31;82.57;100824.44;5097800;27;45607;-78
2022/11/28 04:56:54;;;;;;;;;7.50;5.00;;;;;10.38;82.72;100832.91;5015149;28;47609;-79
2022/11/28 04:59:21;;;;;;;;;6.00;6.00;;;;;10.38;82.66;100822.50;5015278;28;45606;-79
2022/11/28 05:01:47;;;;;;;;;10.75;7.00;;;;;10.34;82.69;100811.34;4981180;28;69299;-79
2022/11/28 05:04:13;;;;;;;;;5.25;5.25;;;;;10.40;82.96;100807.72;4998938;28;45449;-79
2022/11/28 05:06:38;;;;;;;;;10.50;6.50;;;;;10.42;82.63;100813.75;5015199;28;46381;-79
2022/11/28 05:09:04;;;;;;;;;7.75;7.00;;;;;10.43;82.66;100820.66;4998722;28;45414;-79
2022/11/28 05:11:29;;;;;;;;;5.25;4.50;;;;;10.41;82.83;100818.09;5015267;28;45431;-79
2022/11/28 05:13:55;;;;;;;;;8.50;6.00;;;;;10.38;82.68;100807.78;5014779;28;45562;-78
2022/11/28 05:16:21;;;;;;;;;15.00;7.25;;;;;10.40;82.75;100810.31;5014845;28;47147;-79
2022/11/28 05:18:47;;;;;;;;;7.50;6.00;;;;;10.38;82.88;100818.19;5015019;28;45736;-78
2022/11/28 05:21:12;;;;;;;;;9.25;7.00;;;;;10.38;83.10;100826.00;5014947;28;45502;-79
2022/11/28 05:23:39;;;;;;;;;7.25;6.00;;;;;10.40;82.71;100834.59;5014790;28;51283;-79
2022/11/28 05:26:06;;;;;;;;;7.75;7.75;;;;;10.35;82.93;100814.81;5014808;28;45374;-79
2022/11/28 05:28:31;;;;;;;;;11.00;7.75;;;;;10.37;82.82;100811.25;4998047;28;45455;-78
2022/11/28 05:30:57;;;;;;;;;15.25;9.50;;;;;10.33;83.09;100812.25;5013971;28;63380;-78
2022/11/28 05:33:23;;;;;;;;;6.00;6.00;;;;;10.36;83.04;100812.13;5025667;27;45539;-78
2022/11/28 05:35:48;;;;;;;;;11.25;6.00;;;;;10.36;82.94;100822.56;5097066;27;63021;-78
2022/11/28 05:38:13;;;;;;;;;6.25;6.00;;;;;10.36;83.29;100819.94;5096897;27;67946;-79
2022/11/28 05:40:43;;;;;;;;;16.25;7.50;;;;;10.34;83.30;100819.13;5078960;27;49660;-79
2022/11/28 05:43:11;;;;;;;;;11.00;9.00;;;;;10.36;83.22;100806.09;5097441;27;45258;-78
2022/11/28 05:45:41;;;;;;;;;9.75;7.00;;;;;10.38;82.83;100812.09;5096305;27;45548;-79
2022/11/28 05:48:06;;;;;;;;;10.50;7.00;;;;;10.34;83.11;100815.69;5079113;27;47208;-79
2022/11/28 05:50:31;;;;;;;;;11.00;7.00;;;;;10.31;83.07;100820.97;5096457;27;67986;-79
2022/11/28 05:52:57;;;;;;;;;10.50;6.00;;;;;10.30;82.83;100814.03;5097439;27;45284;-79
2022/11/28 05:55:22;;;;;;;;;7.75;6.00;;;;;10.26;82.98;100811.50;5078331;27;73942;-79
2022/11/28 05:57:47;;;;;;;;;11.25;8.00;;;;;10.31;83.16;100814.03;5096326;27;62796;-79
2022/11/28 06:00:13;;;;;;;;;8.75;6.00;;;;;10.27;82.85;100822.78;5096556;27;68158;-79
2022/11/28 06:02:38;;;;;;;;;3.50;3.00;;;;;10.27;83.07;100820.19;5097163;27;45596;-79
2022/11/28 06:05:04;;;;;;;;;8.25;6.25;;;;;10.24;83.06;100821.09;5097042;27;53012;-79
2022/11/28 06:07:29;;;;;;;;;9.50;6.00;;;;;10.26;83.21;100823.66;5097324;27;45314;-79
2022/11/28 06:09:55;;;;;;;;;8.25;6.00;;;;;10.28;83.57;100822.72;5096400;27;63975;-79
2022/11/28 06:12:20;;;;;;;;;10.25;6.00;;;;;10.29;83.50;100821.00;5096130;27;64355;-79
2022/11/28 06:14:45;;;;;;;;;7.50;7.00;;;;;10.37;83.38;100833.84;5096218;27;71754;-79
2022/11/28 06:17:11;;;;;;;;;6.00;5.75;;;;;10.39;83.08;100842.44;5096738;27;52567;-79
2022/11/28 06:19:36;;;;;;;;;7.25;6.00;;;;;10.36;83.31;100839.91;5096475;27;61660;-79
2022/11/28 06:22:02;;;;;;;;;16.25;7.75;;;;;10.37;83.10;100837.28;5097110;27;45600;-79
2022/11/28 06:24:27;;;;;;;;;9.50;6.00;;;;;10.39;83.05;100845.91;5096950;27;46359;-79
2022/11/28 06:26:53;;;;;;;;;11.75;6.50;;;;;10.35;82.97;100840.81;5096493;27;45481;-79
2022/11/28 06:29:19;;;;;;;;;11.50;7.00;;;;;10.31;83.30;100839.19;5078928;27;45351;-79
2022/11/28 06:31:44;;;;;;;;;9.50;4.50;;;;;10.30;83.22;100850.47;5095969;27;63724;-78
2022/11/28 06:34:11;;;;;;;;;6.50;5.50;;;;;10.29;83.38;100854.81;5096854;27;45356;-79
2022/11/28 06:36:37;;;;;;;;;7.75;5.50;;;;;10.30;83.47;100863.47;5096720;27;45295;-79
2022/11/28 06:39:02;;;;;;;;;10.00;6.50;;;;;10.28;83.49;100848.75;5078285;27;48276;-79
2022/11/28 06:41:27;;;;;;;;;6.75;6.00;;;;;10.26;83.30;100849.69;5096230;27;45382;-78
2022/11/28 06:43:55;;;;;;;;;8.50;5.50;;;;;10.33;83.53;100859.09;5096190;27;54890;-79
2022/11/28 06:46:20;;;;;;;;;10.50;7.00;;;;;10.33;83.15;100864.28;5078618;27;45375;-79
2022/11/28 06:48:47;;;;;;;;;6.00;6.00;;;;;10.32;83.19;100875.56;5083963;27;45373;-79
2022/11/28 06:51:13;;;;;;;;;7.00;5.25;;;;;10.31;83.32;100867.78;5058029;28;45487;-79
2022/11/28 06:53:39;;;;;;;;;5.75;5.75;;;;;10.31;83.20;100873.88;5075989;28;45545;-79
2022/11/28 06:56:06;;;;;;;;;10.00;7.00;;;;;10.27;83.50;100873.06;5057527;28;45557;-79
2022/11/28 06:58:31;;;;;;;;;5.75;5.00;;;;;10.26;83.14;100868.75;5075458;28;45443;-79
2022/11/28 07:00:57;;;;;;;;;6.50;6.00;;;;;10.24;83.21;100867.09;5076058;28;45323;-78
2022/11/28 07:03:22;;;;;;;;;6.25;4.50;;;;;10.26;83.28;100873.94;5076033;28;45526;-79
2022/11/28 07:05:47;;;;;;;;;9.25;6.00;;;;;10.22;83.40;100872.31;5074929;28;68010;-78
2022/11/28 07:08:13;;;;;;;;;2.50;2.50;;;;;10.21;83.27;100880.16;5075534;28;54803;-79
2022/11/28 07:10:38;;;;;;;;;6.25;5.00;;;;;10.20;83.16;100888.88;5074800;28;66017;-79
2022/11/28 07:13:03;;;;;;;;;10.50;6.50;;;;;10.17;83.28;100881.13;5075483;28;46145;-79
2022/11/28 07:15:29;;;;;;;;;7.00;5.00;;;;;10.16;83.43;100879.41;5074889;28;69862;-79
2022/11/28 07:17:55;;;;;;;;;9.00;5.50;;;;;10.18;83.14;100883.69;5075022;28;65818;-79
2022/11/28 07:20:20;;;;;;;;;7.00;6.00;;;;;10.17;82.97;100870.72;5075243;28;45359;-79
2022/11/28 07:22:49;;;;;;;;;9.00;5.25;;;;;10.13;83.05;100869.09;5074739;28;74308;-79
2022/11/28 07:25:14;;;;;;;;;5.50;5.00;;;;;10.19;83.22;100879.34;5075444;28;45348;-79
2022/11/28 07:27:41;;;;;;;;;9.75;5.00;;;;;10.17;83.13;100870.72;5075772;28;45431;-79
2022/11/28 07:30:07;;;;;;;;;8.75;5.00;;;;;10.21;82.82;100878.41;5057824;28;45412;-79
2022/11/28 07:32:33;;;;;;;;;9.00;5.00;;;;;10.22;83.11;100876.69;5075097;28;46265;-79
2022/11/28 07:34:59;;;;;;;;;11.75;8.75;;;;;10.15;82.81;100870.75;5075644;28;45367;-79
2022/11/28 07:37:24;;;;;;;;;11.00;9.50;;;;;10.17;83.13;100883.75;5075774;28;45230;-79
2022/11/28 07:39:49;;;;;;;;;13.50;10.25;;;;;10.15;82.71;100888.97;5056995;28;45333;-79
2022/11/28 07:42:15;;;;;;;;;9.25;7.00;;;;;10.14;82.83;100883.81;5074659;27;70677;-76
2022/11/28 07:44:40;;;;;;;;;9.75;6.00;;;;;10.18;82.81;100886.31;5075299;28;49946;-77
2022/11/28 07:47:05;;;;;;;;;6.25;6.00;;;;;10.19;83.06;100881.94;5074501;28;70119;-76
2022/11/28 07:49:31;;;;;;;;;10.00;7.00;;;;;10.20;82.92;100886.28;5093743;27;54836;-76
2022/11/28 07:51:57;;;;;;;;;11.75;9.00;;;;;10.19;82.56;100889.75;5076627;27;67841;-77
2022/11/28 07:54:22;;;;;;;;;5.50;4.00;;;;;10.19;82.82;100888.00;5095692;27;45793;-75
2022/11/28 07:56:48;;;;;;;;;7.25;6.25;;;;;10.18;82.34;100878.50;5095911;27;45383;-76
2022/11/28 07:59:13;;;;;;;;;5.75;5.75;;;;;10.23;82.46;100891.38;5094763;27;68988;-76
2022/11/28 08:01:38;;;;;;;;;6.50;5.25;;;;;10.22;82.33;100897.50;5094660;27;75549;-76
2022/11/28 08:04:05;;;;;;;;;7.00;7.00;;;;;10.23;82.17;100892.25;5095632;27;45428;-76
2022/11/28 08:06:35;;;;;;;;;5.00;5.00;;;;;10.28;82.29;100907.75;5111855;27;45381;-76
2022/11/28 08:09:00;;;;;;;;;10.50;7.00;;;;;10.33;82.27;100910.28;5096135;27;45395;-76
2022/11/28 08:11:28;;;;;;;;;9.75;5.50;;;;;10.32;81.94;100900.75;5080826;27;46199;-76
2022/11/28 08:13:54;;;;;;;;;6.75;6.00;;;;;10.37;82.15;100909.28;5067457;27;45774;-76
2022/11/28 08:16:22;;;;;;;;;9.50;5.75;;;;;10.34;81.67;100911.97;5099099;27;45459;-75
2022/11/28 08:18:48;;;;;;;;;6.00;3.00;;;;;10.31;81.86;100915.50;5067011;27;45536;-75
2022/11/28 08:21:17;;;;;;;;;6.25;5.00;;;;;10.29;81.68;100914.66;5097133;27;46567;-76
2022/11/28 08:23:44;;;;;;;;;2.00;0.00;;;;;10.28;81.80;100913.78;5077785;27;45745;-77
2022/11/28 08:26:12;;;;;;;;;2.50;2.25;;;;;10.28;81.94;100911.19;5078875;27;45348;-77
2022/11/28 08:28:37;;;;;;;;;6.00;5.25;;;;;10.30;81.83;100905.09;5060448;28;45999;-77
2022/11/28 08:31:14;;;;;;;;;5.50;5.25;;;;;10.30;82.01;100911.16;5091288;27;45618;-77
2022/11/28 08:33:40;;;;;;;;;11.00;5.00;;;;;10.34;82.16;100914.56;5075183;27;45503;-78
2022/11/28 08:36:06;;;;;;;;;6.00;5.00;;;;;10.27;81.77;100908.66;5079175;27;45460;-77
2022/11/28 08:38:32;;;;;;;;;8.25;3.00;;;;;10.34;81.71;100909.38;5095556;27;45357;-77
2022/11/28 08:41:05;;;;;;;;;5.50;2.50;;;;;10.34;81.63;100910.22;5097630;27;46150;-77
2022/11/28 08:43:30;;;;;;;;;3.50;3.50;;;;;10.36;81.63;100916.22;5087898;27;45783;-77
2022/11/28 08:45:55;;;;;;;;;7.50;6.00;;;;;10.39;81.71;100910.94;5057390;27;62637;-79
2022/11/28 08:48:21;;;;;;;;;3.00;3.00;;;;;10.42;81.64;100916.09;5078758;27;48392;-78
2022/11/28 08:50:47;;;;;;;;;2.75;2.75;;;;;10.40;81.41;100912.69;5068540;27;45984;-79
2022/11/28 08:53:12;;;;;;;;;2.50;2.50;;;;;10.43;81.51;100919.53;5093799;27;45945;-78
2022/11/28 08:55:40;;;;;;;;;4.50;4.50;;;;;10.46;81.63;100922.91;5089804;27;68445;-79
2022/11/28 08:58:05;;;;;;;;;8.50;3.00;;;;;10.46;81.57;100915.13;5092723;27;45408;-78
2022/11/28 09:00:31;;;;;;;;;6.00;3.00;;;;;10.54;81.28;100914.91;5111797;27;63263;-78
2022/11/28 09:02:56;;;;;;;;;8.50;4.50;;;;;10.55;80.99;100910.56;5097266;27;45416;-78
2022/11/28 09:05:22;;;;;;;;;10.50;6.00;;;;;10.55;81.17;100908.81;5097060;27;45498;-78
2022/11/28 09:07:47;;;;;;;;;5.00;5.00;;;;;10.59;81.02;100910.44;5095547;27;70656;-78
2022/11/28 09:10:12;;;;;;;;;10.75;6.00;;;;;10.61;81.03;100911.25;5078780;27;63952;-78
2022/11/28 09:12:37;;;;;;;;;7.25;2.00;;;;;10.64;81.13;100919.00;5071874;27;73153;-79
2022/11/28 09:15:03;;;;;;;;;6.25;6.00;;;;;10.69;80.71;100918.00;5104876;27;63705;-78
2022/11/28 09:17:29;;;;;;;;;7.50;5.00;;;;;10.70;81.06;100917.97;5100298;27;45479;-78
2022/11/28 09:19:54;;;;;;;;;9.25;5.50;;;;;10.69;80.67;100916.25;5112283;27;75615;-78
2022/11/28 09:22:19;;;;;;;;;8.25;4.50;;;;;10.74;80.50;100905.75;5096225;27;72969;-77
2022/11/28 09:24:44;;;;;;;;;9.25;5.75;;;;;10.78;80.44;100913.41;5100186;27;68298;-78
2022/11/28 09:27:10;;;;;;;;;5.25;4.00;;;;;10.77;80.29;100913.44;5095225;27;66735;-78
2022/11/28 09:29:35;;;;;;;;;3.50;3.00;;;;;10.73;80.38;100930.91;5067634;27;47679;-79
2022/11/28 09:32:00;;;;;;;;;7.00;3.50;;;;;10.74;80.65;100919.59;5103709;27;70715;-78
2022/11/28 09:34:26;;;;;;;;;10.25;5.50;;;;;10.76;80.23;100925.63;5100280;27;45469;-78
2022/11/28 09:36:51;;;;;;;;;11.75;5.50;;;;;10.76;80.29;100930.81;5084537;27;45398;-78
2022/11/28 09:39:17;;;;;;;;;9.25;3.00;;;;;10.78;80.07;100925.59;5087144;27;45603;-79
2022/11/28 09:41:48;;;;;;;;;6.00;3.00;;;;;10.82;80.26;100924.59;5093256;27;69810;-79
2022/11/28 09:44:26;;;;;;;;;6.25;2.75;;;;;10.83;79.74;100921.97;5081236;27;45327;-79
2022/11/28 09:46:55;;;;;;;;;3.00;3.00;;;;;10.92;80.07;100933.00;5109495;27;45609;-79
2022/11/28 09:49:35;;;;;;;;;2.50;2.50;;;;;10.96;79.77;100930.28;5082940;27;46465;-79
2022/11/28 09:52:15;;;;;;;;;2.75;2.00;;;;;11.03;79.51;100929.22;5061974;27;45410;-78
2022/11/28 09:54:48;;;;;;;;;5.25;2.00;;;;;11.11;79.74;100928.16;5082271;27;45360;-78
2022/11/28 09:57:47;;;;;;;;;2.25;2.00;;;;;11.21;79.31;100933.06;5093616;27;45538;-79
2022/11/28 10:00:23;;;;;;;;;6.50;4.50;;;;;11.24;78.91;100927.75;5079106;27;47021;-79
2022/11/28 10:03:01;;;;;;;;;1.00;1.00;;;;;11.28;78.77;100928.53;5078062;27;45716;-79
2022/11/28 10:05:38;;;;;;;;;4.00;2.00;;;;;11.24;78.86;100926.91;5096117;27;45414;-79
2022/11/28 10:08:31;;;;;;;;;5.50;2.75;;;;;11.28;78.22;100927.69;5060893;27;45487;-79
2022/11/28 10:11:21;;;;;;;;;2.75;2.00;;;;;11.28;78.38;100922.47;5065730;27;45438;-79
2022/11/28 10:14:36;;;;;;;;;1.75;1.75;;;;;11.31;78.31;100910.22;5092595;27;45760;-80
2022/11/28 10:17:20;;;;;;;;;13.00;5.00;;;;;11.38;78.62;100916.06;5011363;28;45410;-78
2022/11/28 10:19:50;;;;;;;;;9.25;5.00;;;;;11.41;78.54;100914.25;4993793;28;45499;-78
2022/11/28 10:22:18;;;;;;;;;6.00;4.00;;;;;11.51;78.63;100927.00;4996196;28;45836;-78
2022/11/28 10:24:48;;;;;;;;;5.75;2.75;;;;;11.53;77.98;100935.63;4995003;28;45530;-79
2022/11/28 10:27:14;;;;;;;;;8.50;2.75;;;;;11.54;78.05;100938.19;4983793;28;45490;-79
2022/11/28 10:30:11;;;;;;;;;7.50;4.25;;;;;11.58;78.01;100933.75;5000926;28;45550;-79
2022/11/28 10:32:42;;;;;;;;;3.25;2.25;;;;;11.60;77.86;100931.94;4992555;28;46441;-78
2022/11/28 10:35:35;;;;;;;;;3.50;2.00;;;;;11.60;76.87;100932.78;4996838;28;45849;-79
2022/11/28 10:38:01;;;;;;;;;2.00;1.00;;;;;11.59;77.13;100927.63;5009306;28;45457;-78
2022/11/28 10:40:54;;;;;;;;;1.00;1.00;;;;;11.66;77.03;100929.13;4992134;28;45530;-79
2022/11/28 10:43:38;;;;;;;;;1.50;1.25;;;;;11.74;76.65;100915.88;5006745;28;46790;-77
2022/11/28 10:46:29;;;;;;;;;6.50;2.00;;;;;11.85;76.59;100918.13;5007690;28;45667;-79
2022/11/28 10:49:28;;;;;;;;;7.00;2.00;;;;;12.09;76.40;100914.81;5002813;28;45454;-79
2022/11/28 10:52:05;;;;;;;;;6.25;2.00;;;;;12.64;76.01;100916.47;5010406;28;45532;-78
2022/11/28 10:54:37;;;;;;;;;1.75;1.00;;;;;13.07;75.46;100920.16;5066076;27;46994;-79
2022/11/28 10:57:11;;;;;;;;;2.00;2.00;;;;;13.54;75.59;100913.19;5095004;27;45762;-78
2022/11/28 11:00:02;;;;;;;;;4.00;2.00;;;;;14.62;73.60;100921.09;5062628;28;45510;-79
2022/11/28 11:02:39;;;;;;;;;6.25;2.00;;;;;15.98;71.88;100916.66;5061165;27;45649;-79
2022/11/28 11:05:05;;;;;;;;;4.50;2.00;;;;;17.29;68.17;100917.00;5068397;27;46020;-79
2022/11/28 11:07:32;;;;;;;;;3.25;2.00;;;;;18.05;64.12;100922.44;5090945;27;45634;-77
2022/11/28 11:10:13;;;;;;;;;5.00;2.00;;;;;18.29;62.59;100929.88;5094879;27;45374;-77
2022/11/28 11:12:39;;;;;;;;;4.00;2.00;;;;;18.48;61.10;100922.59;5074029;27;45605;-77
2022/11/28 11:15:15;;;;;;;;;1.00;1.00;;;;;18.71;58.81;100925.66;5084525;27;64103;-77
2022/11/28 11:17:40;;;;;;;;;1.00;1.00;;;;;19.05;59.22;100934.19;5089410;27;45292;-77
2022/11/28 11:20:29;;;;;;;;;1.25;1.25;;;;;19.75;56.71;100934.22;5113089;27;59402;-76
2022/11/28 11:23:00;;;;;;;;;4.00;1.00;;;;;19.99;54.92;100937.06;5069552;27;45428;-77
2022/11/28 11:25:27;;;;;;;;;2.75;1.00;;;;;19.90;56.95;100935.00;5095196;27;46590;-77
2022/11/28 11:28:02;;;;;;;;;1.00;1.00;;;;;19.41;54.97;100928.41;5076538;27;45466;-77
2022/11/28 11:30:33;;;;;;;;;1.50;1.25;;;;;18.57;55.08;100932.59;5095082;27;45412;-76
2022/11/28 11:33:00;;;;;;;;;5.00;1.00;;;;;18.21;55.72;100930.31;5094431;27;45480;-76
2022/11/28 11:35:27;;;;;;;;;1.00;1.00;;;;;18.10;56.52;100933.56;5092446;27;46549;-76
2022/11/28 11:38:12;;;;;;;;;3.25;1.00;;;;;18.42;55.98;100916.84;5085180;27;45427;-77
2022/11/28 11:40:38;;;;;;;;;2.00;0.75;;;;;18.66;56.12;100917.16;5087234;27;45524;-76